sensor_id;sensor_type;location;lat;lon;timestamp;pressure;altitude;pressure_sealevel;temperature;humidity
7586;BME280;12459;42.646;23.292;2023-01-28T00:05:27;92946.41;;;8.73;100.00
7586;BME280;12459;42.646;23.292;2023-01-28T00:20:30;92972.75;;;8.71;100.00
7586;BME280;12459;42.646;23.292;2023-01-28T00:35:31;92991.44;;;8.71;100.00
7586;BME280;12459;42.646;23.292;2023-01-28T00:50:33;92994.13;;;8.71;100.00
7586;BME280;12459;42.646;23.292;2023-01-28T01:05:35;93003.28;;;8.70;100.00
7586;BME280;12459;42.646;23.292;2023-01-28T01:20:36;93004.84;;;8.68;100.00
7586;BME280;12459;42.646;23.292;2023-01-28T01:35:41;93004.44;;;8.69;100.00
7586;BME280;12459;42.646;23.292;2023-01-28T01:50:54;93007.22;;;8.62;100.00
7586;BME280;12459;42.646;23.292;2023-01-28T02:05:57;93017.16;;;8.61;100.00
7586;BME280;12459;42.646;23.292;2023-01-28T02:21:03;93025.56;;;8.60;100.00
7586;BME280;12459;42.646;23.292;2023-01-28T02:51:19;93028.00;;;8.51;100.00
7586;BME280;12459;42.646;23.292;2023-01-28T03:06:29;93028.41;;;8.49;100.00
7586;BME280;12459;42.646;23.292;2023-01-28T03:21:31;93039.44;;;8.51;100.00
7586;BME280;12459;42.646;23.292;2023-01-28T03:36:53;93039.47;;;8.48;100.00
7586;BME280;12459;42.646;23.292;2023-01-28T03:51:55;93044.81;;;8.48;100.00
7586;BME280;12459;42.646;23.292;2023-01-28T04:06:57;93050.16;;;8.48;100.00
7586;BME280;12459;42.646;23.292;2023-01-28T04:21:59;93071.88;;;8.50;100.00
7586;BME280;12459;42.646;23.292;2023-01-28T04:37:00;93076.84;;;8.48;100.00
7586;BME280;12459;42.646;23.292;2023-01-28T04:52:02;93102.84;;;8.44;100.00
7586;BME280;12459;42.646;23.292;2023-01-28T05:07:04;93111.25;;;8.42;100.00
7586;BME280;12459;42.646;23.292;2023-01-28T05:22:05;93125.72;;;8.45;100.00
7586;BME280;12459;42.646;23.292;2023-01-28T05:37:07;93134.88;;;8.44;100.00
7586;BME280;12459;42.646;23.292;2023-01-28T05:52:09;93146.72;;;8.43;100.00
7586;BME280;12459;42.646;23.292;2023-01-28T06:07:10;93157.31;;;8.50;100.00
7586;BME280;12459;42.646;23.292;2023-01-28T06:22:13;93179.50;;;8.43;100.00
7586;BME280;12459;42.646;23.292;2023-01-28T06:37:15;93193.63;;;8.44;100.00
7586;BME280;12459;42.646;23.292;2023-01-28T06:52:16;93227.16;;;8.45;100.00
7586;BME280;12459;42.646;23.292;2023-01-28T07:07:18;93240.53;;;8.45;100.00
7586;BME280;12459;42.646;23.292;2023-01-28T07:22:19;93259.25;;;8.41;100.00
7586;BME280;12459;42.646;23.292;2023-01-28T07:37:21;93276.75;;;8.46;100.00
7586;BME280;12459;42.646;23.292;2023-01-28T07:52:23;93290.13;;;8.42;100.00
7586;BME280;12459;42.646;23.292;2023-01-28T08:07:25;93298.09;;;8.46;100.00
7586;BME280;12459;42.646;23.292;2023-01-28T08:22:28;93308.78;;;8.46;100.00
7586;BME280;12459;42.646;23.292;2023-01-28T08:37:29;93308.38;;;8.47;100.00
7586;BME280;12459;42.646;23.292;2023-01-28T08:52:31;93313.66;;;8.54;100.00
7586;BME280;12459;42.646;23.292;2023-01-28T09:07:36;93310.09;;;8.68;100.00
7586;BME280;12459;42.646;23.292;2023-01-28T09:22:37;93318.47;;;8.70;100.00
7586;BME280;12459;42.646;23.292;2023-01-28T09:37:39;93314.31;;;8.66;100.00
7586;BME280;12459;42.646;23.292;2023-01-28T09:52:41;93316.94;;;8.69;100.00
7586;BME280;12459;42.646;23.292;2023-01-28T10:23:03;93303.25;;;8.67;100.00
7586;BME280;12459;42.646;23.292;2023-01-28T10:38:07;93308.59;;;8.67;100.00
7586;BME280;12459;42.646;23.292;2023-01-28T10:53:10;93310.84;;;8.69;100.00
7586;BME280;12459;42.646;23.292;2023-01-28T11:08:13;93307.00;;;8.73;100.00
7586;BME280;12459;42.646;23.292;2023-01-28T11:23:20;93291.72;;;8.74;100.00
7586;BME280;12459;42.646;23.292;2023-01-28T11:38:24;93296.28;;;8.77;100.00
7586;BME280;12459;42.646;23.292;2023-01-28T11:53:32;93298.19;;;8.76;100.00
7586;BME280;12459;42.646;23.292;2023-01-28T12:08:47;93301.56;;;8.80;100.00
7586;BME280;12459;42.646;23.292;2023-01-28T13:09:30;93324.09;;;8.79;100.00
7586;BME280;12459;42.646;23.292;2023-01-28T13:24:34;93330.56;;;8.82;100.00
7586;BME280;12459;42.646;23.292;2023-01-28T13:39:36;93350.41;;;8.81;100.00
7586;BME280;12459;42.646;23.292;2023-01-28T14:44:05;93403.81;;;8.84;100.00
7586;BME280;12459;42.646;23.292;2023-01-28T14:59:27;93408.44;;;8.80;100.00
7586;BME280;12459;42.646;23.292;2023-01-28T15:14:30;93423.75;;;8.76;100.00
7586;BME280;12459;42.646;23.292;2023-01-28T15:29:33;93422.28;;;8.68;100.00
7586;BME280;12459;42.646;23.292;2023-01-28T15:44:38;93445.59;;;8.64;100.00
7586;BME280;12459;42.646;23.292;2023-01-28T15:59:42;93457.78;;;8.65;100.00
7586;BME280;12459;42.646;23.292;2023-01-28T16:14:52;93473.44;;;8.63;100.00
7586;BME280;12459;42.646;23.292;2023-01-28T16:29:54;93483.41;;;8.59;100.00
7586;BME280;12459;42.646;23.292;2023-01-28T16:44:56;93485.31;;;8.58;100.00
7586;BME280;12459;42.646;23.292;2023-01-28T16:59:58;93503.28;;;8.54;100.00
7586;BME280;12459;42.646;23.292;2023-01-28T17:15:00;93513.94;;;8.54;100.00
7586;BME280;12459;42.646;23.292;2023-01-28T17:30:03;93526.19;;;8.52;100.00
7586;BME280;12459;42.646;23.292;2023-01-28T17:45:06;93539.53;;;8.52;100.00
7586;BME280;12459;42.646;23.292;2023-01-28T18:00:07;93545.66;;;8.49;100.00
7586;BME280;12459;42.646;23.292;2023-01-28T18:15:15;93554.41;;;8.49;100.00
7586;BME280;12459;42.646;23.292;2023-01-28T18:30:18;93570.41;;;8.53;100.00
